Terminal Aerodrome Forecast
Issued by NWS

Home | Current Version | Previous Version | Text Only | Print | Product List | Glossary On
Versions: 1 2 3 4 5 6 7 8 9 10 11 12 13 14 15 16 17 18 19 20 21 22 23 24 25 26 27 28 29 30 31
000
FTAK31 PAFA 060534
TAFAFA
TAF
PAFA 060534Z 0606/0712 VRB03KT 6SM FU FEW180
     FM060900 VRB03KT 4SM FU SCT180
     FM061200 VRB03KT 2SM FU SCT100 BKN200
     FM070000 11005KT 4SM FU SCT100 BKN200=

USA.gov is the U.S. government's official web portal to all federal, state and local government web resources and services.